createdAt,value
2018-09-12T04:00:39.009Z,0.00
2018-09-12T04:01:38.961Z,0.00
2018-09-12T04:02:38.993Z,0.00
2018-09-12T04:03:38.953Z,0.00
2018-09-12T04:04:38.954Z,0.00
2018-09-12T04:05:38.923Z,0.00
2018-09-12T04:06:38.928Z,0.00
2018-09-12T04:07:38.899Z,0.00
2018-09-12T04:08:38.896Z,0.00
2018-09-12T04:09:38.911Z,0.00
2018-09-12T04:10:38.869Z,0.00
2018-09-12T04:11:38.844Z,0.00
2018-09-12T04:12:38.831Z,0.00
2018-09-12T04:13:38.827Z,0.00
2018-09-12T04:14:38.823Z,0.00
2018-09-12T04:15:38.797Z,0.00
2018-09-12T04:16:38.836Z,0.00
2018-09-12T04:17:38.777Z,0.00
2018-09-12T04:18:38.767Z,0.00
2018-09-12T04:19:38.764Z,0.00
2018-09-12T04:20:38.751Z,0.00
2018-09-12T04:21:38.730Z,0.00
2018-09-12T04:22:38.726Z,4.00
2018-09-12T04:23:38.708Z,8.00
2018-09-12T04:24:38.719Z,4.00
2018-09-12T04:25:38.692Z,4.00
2018-09-12T04:26:38.679Z,4.00
2018-09-12T04:27:38.667Z,4.00
2018-09-12T04:28:38.651Z,4.00
2018-09-12T04:29:38.672Z,4.00
2018-09-12T04:30:38.630Z,12.00
2018-09-12T04:31:38.617Z,16.00
2018-09-12T04:32:38.607Z,12.00
2018-09-12T04:33:38.596Z,12.00
2018-09-12T04:34:38.605Z,20.00
2018-09-12T04:35:38.580Z,24.00
2018-09-12T04:36:38.562Z,24.00
2018-09-12T04:37:38.590Z,28.00
2018-09-12T04:38:38.560Z,36.00
2018-09-12T04:39:38.538Z,40.00
2018-09-12T04:40:38.516Z,44.00
2018-09-12T04:41:38.508Z,52.00
2018-09-12T04:42:38.549Z,52.00
2018-09-12T04:43:38.485Z,64.00
2018-09-12T04:44:38.483Z,68.00
2018-09-12T04:45:38.465Z,76.00
2018-09-12T04:46:38.463Z,88.00
2018-09-12T04:47:38.440Z,92.00
2018-09-12T04:48:38.525Z,104.00
2018-09-12T04:49:38.427Z,112.00
2018-09-12T04:50:38.410Z,120.00
2018-09-12T04:51:38.397Z,132.00
2018-09-12T04:52:38.383Z,140.00
2018-09-12T04:53:38.383Z,156.00
2018-09-12T04:54:38.396Z,164.00
2018-09-12T04:55:38.347Z,172.00
2018-09-12T04:56:38.338Z,180.00
2018-09-12T04:57:38.327Z,196.00
2018-09-12T04:58:38.317Z,196.00
2018-09-12T04:59:38.367Z,212.00
2018-09-12T05:00:38.302Z,220.00
2018-09-12T05:01:38.313Z,232.00
2018-09-12T05:02:38.270Z,248.00
2018-09-12T05:03:38.259Z,256.00
2018-09-12T05:04:38.248Z,264.00
2018-09-12T05:05:38.249Z,276.00
2018-09-12T05:06:38.228Z,288.00
2018-09-12T05:07:38.217Z,296.00
2018-09-12T05:08:38.204Z,312.00
2018-09-12T05:09:38.189Z,324.00
2018-09-12T05:10:38.192Z,328.00
2018-09-12T05:11:38.175Z,344.00
2018-09-12T05:12:38.156Z,352.00
2018-09-12T05:13:38.150Z,360.00
2018-09-12T05:14:38.135Z,372.00
2018-09-12T05:15:38.136Z,384.00
2018-09-12T05:16:38.197Z,392.00
2018-09-12T05:17:38.105Z,396.00
2018-09-12T05:18:38.089Z,412.00
2018-09-12T05:19:38.078Z,416.00
2018-09-12T05:20:38.082Z,424.00
2018-09-12T05:21:38.055Z,436.00
2018-09-12T05:22:38.053Z,448.00
2018-09-12T05:23:38.032Z,456.00
2018-09-12T05:24:38.023Z,460.00
2018-09-12T05:25:38.019Z,476.00
2018-09-12T05:26:37.996Z,480.00
2018-09-12T05:27:37.986Z,492.00
2018-09-12T05:28:38.002Z,500.00
2018-09-12T05:29:37.968Z,512.00
2018-09-12T05:30:37.964Z,512.00
2018-09-12T05:31:37.952Z,528.00
2018-09-12T05:32:37.933Z,532.00
2018-09-12T05:33:37.919Z,540.00
2018-09-12T05:34:37.910Z,552.00
2018-09-12T05:35:37.907Z,556.00
2018-09-12T05:36:37.883Z,564.00
2018-09-12T05:37:37.875Z,576.00
2018-09-12T05:38:37.864Z,584.00
2018-09-12T05:39:37.852Z,588.00
2018-09-12T05:40:37.864Z,600.00
2018-09-12T05:41:37.833Z,604.00
2018-09-12T05:42:37.820Z,608.00
2018-09-12T05:43:37.812Z,620.00
2018-09-12T05:44:37.799Z,624.00
2018-09-12T05:45:37.795Z,632.00
2018-09-12T05:46:37.788Z,636.00
2018-09-12T05:47:37.768Z,640.00
2018-09-12T05:48:37.755Z,648.00
2018-09-12T05:49:37.742Z,656.00
2018-09-12T05:50:37.788Z,660.00
2018-09-12T05:51:37.717Z,672.00
2018-09-12T05:52:37.705Z,668.00
2018-09-12T05:53:37.693Z,684.00
2018-09-12T05:54:37.692Z,688.00
2018-09-12T05:55:37.686Z,696.00
2018-09-12T05:56:37.665Z,704.00
2018-09-12T05:57:37.647Z,708.00
2018-09-12T05:58:37.637Z,716.00
2018-09-12T05:59:37.627Z,720.00
2018-09-12T06:00:37.634Z,728.00
2018-09-12T06:01:37.605Z,740.00
2018-09-12T06:02:37.604Z,740.00
2018-09-12T06:03:37.582Z,748.00
2018-09-12T06:04:37.582Z,756.00
2018-09-12T06:05:37.581Z,760.00
2018-09-12T06:06:37.555Z,768.00
2018-09-12T06:07:37.538Z,780.00
2018-09-12T06:08:37.535Z,780.00
2018-09-12T06:09:37.521Z,788.00
2018-09-12T06:10:37.519Z,800.00
2018-09-12T06:11:37.495Z,796.00
2018-09-12T06:12:37.489Z,804.00
2018-09-12T06:13:37.469Z,816.00
2018-09-12T06:14:37.458Z,820.00
2018-09-12T06:15:37.462Z,824.00
2018-09-12T06:16:37.438Z,832.00
2018-09-12T06:17:37.424Z,832.00
2018-09-12T06:18:37.412Z,844.00
2018-09-12T06:19:37.414Z,852.00
2018-09-12T06:20:37.411Z,856.00
2018-09-12T06:21:37.379Z,856.00
2018-09-12T06:22:37.375Z,860.00
2018-09-12T06:23:37.359Z,868.00
2018-09-12T06:24:37.366Z,872.00
2018-09-12T06:25:37.353Z,880.00
2018-09-12T06:26:37.326Z,892.00
2018-09-12T06:27:37.311Z,888.00
2018-09-12T06:28:37.307Z,904.00
2018-09-12T06:29:37.291Z,904.00
2018-09-12T06:30:37.303Z,912.00
2018-09-12T06:31:37.273Z,920.00
2018-09-12T06:32:37.282Z,924.00
2018-09-12T06:33:37.252Z,940.00
2018-09-12T06:34:37.237Z,948.00
2018-09-12T06:35:37.235Z,952.00
2018-09-12T06:36:37.212Z,956.00
2018-09-12T06:37:37.203Z,964.00
2018-09-12T06:38:37.219Z,976.00
2018-09-12T06:39:37.177Z,980.00
2018-09-12T06:40:37.197Z,988.00
2018-09-12T06:41:37.181Z,1004.00
2018-09-12T06:42:37.154Z,1032.00
2018-09-12T06:43:37.133Z,1212.00
2018-09-12T06:44:37.170Z,2176.00
2018-09-12T06:45:37.170Z,4088.00
2018-09-12T06:46:37.099Z,5844.00
2018-09-12T06:47:37.102Z,6252.00
2018-09-12T06:48:37.093Z,6360.00
2018-09-12T06:49:37.088Z,6424.00
2018-09-12T06:50:37.088Z,6504.00
2018-09-12T06:51:37.051Z,6536.00
2018-09-12T06:52:37.036Z,6588.00
2018-09-12T06:53:37.020Z,6628.00
2018-09-12T06:54:37.038Z,6676.00
2018-09-12T06:55:37.050Z,6700.00
2018-09-12T06:56:36.990Z,6744.00
2018-09-12T06:57:36.988Z,6772.00
2018-09-12T06:58:36.967Z,6808.00
2018-09-12T06:59:36.984Z,6880.00
2018-09-12T07:00:37.008Z,6920.00
2018-09-12T07:01:36.956Z,6960.00
2018-09-12T07:02:36.921Z,7004.00
2018-09-12T07:03:36.908Z,7052.00
2018-09-12T07:04:36.899Z,7096.00
2018-09-12T07:05:36.887Z,7136.00
2018-09-12T07:06:36.887Z,7172.00
2018-09-12T07:07:36.873Z,7220.00
2018-09-12T07:08:36.859Z,7272.00
2018-09-12T07:09:36.840Z,7340.00
2018-09-12T07:10:36.829Z,7400.00
2018-09-12T07:11:36.833Z,7468.00
2018-09-12T07:12:36.817Z,7504.00
2018-09-12T07:13:36.794Z,7592.00
2018-09-12T07:14:36.785Z,7664.00
2018-09-12T07:15:36.775Z,7712.00
2018-09-12T07:16:36.805Z,7760.00
2018-09-12T07:17:36.758Z,7800.00
2018-09-12T07:18:36.740Z,7808.00
2018-09-12T07:19:36.731Z,7876.00
2018-09-12T07:20:36.720Z,7876.00
2018-09-12T07:21:36.737Z,7924.00
2018-09-12T07:22:36.714Z,7940.00
2018-09-12T07:23:36.688Z,7964.00
2018-09-12T07:24:36.872Z,7960.00
2018-09-12T07:25:36.659Z,7988.00
2018-09-12T07:26:36.663Z,8024.00
2018-09-12T07:27:36.659Z,8036.00
2018-09-12T07:28:36.635Z,8036.00
2018-09-12T07:29:36.628Z,8080.00
2018-09-12T07:30:36.674Z,8084.00
2018-09-12T07:31:36.610Z,8116.00
2018-09-12T07:32:36.589Z,8140.00
2018-09-12T07:33:36.585Z,8176.00
2018-09-12T07:34:36.559Z,8212.00
2018-09-12T07:35:36.547Z,8276.00
2018-09-12T07:36:36.566Z,8344.00
2018-09-12T07:37:36.540Z,8424.00
2018-09-12T07:38:36.514Z,8500.00
2018-09-12T07:39:36.516Z,8596.00
2018-09-12T07:40:36.502Z,8712.00
2018-09-12T07:41:36.509Z,8816.00
2018-09-12T07:42:36.475Z,8920.00
2018-09-12T07:43:36.455Z,9004.00
2018-09-12T07:44:36.447Z,9060.00
2018-09-12T07:45:36.440Z,9140.00
2018-09-12T07:46:36.442Z,9324.00
2018-09-12T07:47:36.410Z,9308.00
2018-09-12T07:48:36.403Z,9208.00
2018-09-12T07:49:36.400Z,9204.00
2018-09-12T07:50:36.386Z,9244.00
2018-09-12T07:51:36.380Z,9252.00
2018-09-12T07:52:36.357Z,9296.00
2018-09-12T07:53:36.358Z,9352.00
2018-09-12T07:54:36.336Z,9400.00
2018-09-12T07:55:36.328Z,9440.00
2018-09-12T07:56:36.335Z,9492.00
2018-09-12T07:57:36.305Z,9520.00
2018-09-12T07:58:36.305Z,9544.00
2018-09-12T07:59:36.287Z,9560.00
2018-09-12T08:00:36.277Z,9672.00
2018-09-12T08:01:36.279Z,9732.00
2018-09-12T08:02:36.251Z,9796.00
2018-09-12T08:03:36.234Z,9816.00
2018-09-12T08:04:36.226Z,9856.00
2018-09-12T08:05:36.210Z,9872.00
2018-09-12T08:06:36.230Z,9864.00
2018-09-12T08:07:36.195Z,9872.00
2018-09-12T08:08:36.193Z,9888.00
2018-09-12T08:09:36.168Z,9968.00
2018-09-12T08:10:36.164Z,10080.00
2018-09-12T08:11:36.164Z,10200.00
2018-09-12T08:12:36.135Z,10624.00
2018-09-12T08:13:36.126Z,14112.00
2018-09-12T08:14:36.117Z,18144.00
2018-09-12T08:15:36.106Z,18976.00
2018-09-12T08:16:36.100Z,18944.00
2018-09-12T08:17:36.081Z,19872.00
2018-09-12T08:18:36.069Z,20352.00
2018-09-12T08:19:36.053Z,21088.00
2018-09-12T08:20:36.041Z,20800.00
2018-09-12T08:21:36.047Z,21504.00
2018-09-12T08:22:36.026Z,22656.00
2018-09-12T08:23:36.019Z,21888.00
2018-09-12T08:24:36.005Z,22240.00
2018-09-12T08:25:35.996Z,22400.00
2018-09-12T08:26:36.024Z,22976.00
2018-09-12T08:27:35.968Z,27168.00
2018-09-12T08:28:35.955Z,40576.00
2018-09-12T08:29:35.952Z,54784.00
2018-09-12T08:30:35.932Z,54560.00
2018-09-12T08:31:35.944Z,56032.00
2018-09-12T08:32:35.916Z,56960.00
2018-09-12T08:33:35.902Z,57376.00
2018-09-12T08:34:35.887Z,58080.00
2018-09-12T08:35:35.889Z,59584.00
2018-09-12T08:36:35.988Z,60672.00
2018-09-12T08:37:35.853Z,61920.00
2018-09-12T08:38:35.848Z,62432.00
2018-09-12T08:39:35.833Z,58304.00
2018-09-12T08:40:35.830Z,49376.00
2018-09-12T08:41:35.831Z,53248.00
2018-09-12T08:42:35.829Z,61344.00
2018-09-12T08:43:35.788Z,59264.00
2018-09-12T08:44:35.776Z,54368.00
2018-09-12T08:45:35.770Z,53600.00
2018-09-12T08:46:35.776Z,50656.00
2018-09-12T08:47:35.746Z,52224.00
2018-09-12T08:48:35.738Z,39808.00
2018-09-12T08:49:35.724Z,17824.00
2018-09-12T08:50:35.716Z,14144.00
2018-09-12T08:51:35.730Z,27008.00
2018-09-12T08:52:35.694Z,24416.00
2018-09-12T08:53:35.688Z,11872.00
2018-09-12T08:54:35.668Z,17408.00
2018-09-12T08:55:35.656Z,24992.00
2018-09-12T08:56:35.661Z,28672.00
2018-09-12T08:57:35.639Z,29536.00
2018-09-12T08:58:35.631Z,30592.00
2018-09-12T08:59:35.617Z,32576.00
2018-09-12T09:00:35.604Z,30016.00
2018-09-12T09:01:35.657Z,18656.00
2018-09-12T09:02:35.586Z,12736.00
2018-09-12T09:03:35.569Z,15040.00
2018-09-12T09:04:35.572Z,27072.00
2018-09-12T09:05:35.546Z,42752.00
2018-09-12T09:06:35.529Z,41568.00
2018-09-12T09:07:35.556Z,41504.00
2018-09-12T09:08:35.505Z,41472.00
2018-09-12T09:09:35.504Z,41984.00
2018-09-12T09:10:35.561Z,32032.00
2018-09-12T09:11:35.482Z,31616.00
2018-09-12T09:12:35.477Z,36928.00
2018-09-12T09:13:35.452Z,34176.00
2018-09-12T09:14:35.443Z,19392.00
2018-09-12T09:15:35.432Z,10996.00
2018-09-12T09:16:35.418Z,9768.00
2018-09-12T09:17:35.425Z,9392.00
2018-09-12T09:18:35.401Z,9148.00
2018-09-12T09:19:35.391Z,9012.00
2018-09-12T09:20:35.386Z,8792.00
2018-09-12T09:21:35.364Z,8644.00
2018-09-12T09:22:35.375Z,8576.00
2018-09-12T09:23:35.355Z,8428.00
2018-09-12T09:24:35.332Z,8324.00
2018-09-12T09:25:35.356Z,8328.00
2018-09-12T09:26:35.309Z,8252.00
2018-09-12T09:27:35.324Z,8212.00
2018-09-12T09:28:35.282Z,8384.00
2018-09-12T09:29:35.275Z,8424.00
2018-09-12T09:30:35.259Z,8948.00
2018-09-12T09:31:35.250Z,13696.00
2018-09-12T09:32:35.269Z,18656.00
2018-09-12T09:33:35.237Z,18560.00
2018-09-12T09:34:35.214Z,10912.00
2018-09-12T09:35:35.339Z,7900.00
2018-09-12T09:36:35.201Z,6868.00
2018-09-12T09:37:35.198Z,6428.00
2018-09-12T09:38:35.178Z,6152.00
2018-09-12T09:39:35.176Z,5720.00
2018-09-12T09:40:35.146Z,5140.00
2018-09-12T09:41:35.142Z,4456.00
2018-09-12T09:42:35.148Z,3764.00
2018-09-12T09:43:35.127Z,3148.00
2018-09-12T09:44:35.173Z,2740.00
2018-09-12T09:45:35.101Z,2488.00
2018-09-12T09:46:35.085Z,2260.00
2018-09-12T09:47:35.098Z,2100.00
2018-09-12T09:48:35.066Z,2064.00
2018-09-12T09:49:35.045Z,2020.00
2018-09-12T09:50:35.038Z,2000.00
2018-09-12T09:51:35.031Z,1972.00
2018-09-12T09:52:35.041Z,1920.00
2018-09-12T09:53:35.003Z,1916.00
2018-09-12T09:54:35.038Z,1892.00
2018-09-12T09:55:34.987Z,1856.00
2018-09-12T09:56:34.974Z,1796.00
2018-09-12T09:57:34.977Z,1760.00
2018-09-12T09:58:34.945Z,1740.00
2018-09-12T09:59:34.955Z,1720.00
2018-09-12T10:00:34.933Z,1676.00
2018-09-12T10:01:34.938Z,1712.00
2018-09-12T10:02:34.917Z,1700.00
2018-09-12T10:03:34.899Z,1676.00
2018-09-12T10:04:34.886Z,1660.00
2018-09-12T10:05:34.882Z,1680.00
2018-09-12T10:06:34.873Z,1676.00
2018-09-12T10:07:34.869Z,1672.00
2018-09-12T10:08:34.838Z,1656.00
2018-09-12T10:09:34.826Z,1656.00
2018-09-12T10:10:34.816Z,1652.00
2018-09-12T10:11:34.801Z,1640.00
2018-09-12T10:12:34.805Z,1636.00
2018-09-12T10:13:34.786Z,1652.00
2018-09-12T10:14:34.770Z,1632.00
2018-09-12T10:15:34.759Z,1604.00
2018-09-12T10:16:34.757Z,1612.00
2018-09-12T10:17:34.804Z,1604.00
2018-09-12T10:18:34.725Z,1612.00
2018-09-12T10:19:34.714Z,1612.00
2018-09-12T10:20:34.704Z,1604.00
2018-09-12T10:21:34.701Z,1588.00
2018-09-12T10:22:34.698Z,1596.00
2018-09-12T10:23:34.663Z,1604.00
2018-09-12T10:24:34.663Z,1612.00
2018-09-12T10:25:34.655Z,1608.00
2018-09-12T10:26:34.635Z,1592.00
2018-09-12T10:27:34.639Z,1540.00
2018-09-12T10:28:34.618Z,1556.00
2018-09-12T10:29:34.597Z,1572.00
2018-09-12T10:30:34.596Z,1572.00
2018-09-12T10:31:34.580Z,1572.00
2018-09-12T10:32:34.591Z,1560.00
2018-09-12T10:33:34.558Z,1564.00
2018-09-12T10:34:34.544Z,1576.00
2018-09-12T10:35:34.537Z,1596.00
2018-09-12T10:36:34.548Z,1624.00
2018-09-12T10:37:34.535Z,1588.00
2018-09-12T10:38:34.498Z,1568.00
2018-09-12T10:39:34.527Z,1568.00
2018-09-12T10:40:34.497Z,1576.00
2018-09-12T10:41:34.466Z,1572.00
2018-09-12T10:42:34.460Z,1556.00
2018-09-12T10:43:34.460Z,1564.00
2018-09-12T10:44:34.442Z,1552.00
2018-09-12T10:45:34.430Z,1560.00
2018-09-12T10:46:34.415Z,1548.00
2018-09-12T10:47:34.409Z,1540.00
2018-09-12T10:48:34.412Z,1540.00
2018-09-12T10:49:34.380Z,1532.00
2018-09-12T10:50:34.371Z,1568.00
2018-09-12T10:51:34.359Z,1568.00
2018-09-12T10:52:34.353Z,1536.00
2018-09-12T10:53:34.346Z,1532.00
2018-09-12T10:54:34.332Z,1528.00
2018-09-12T10:55:34.315Z,1596.00
2018-09-12T10:56:34.381Z,1536.00
2018-09-12T10:57:34.296Z,1520.00
2018-09-12T10:58:34.356Z,1520.00
2018-09-12T10:59:34.284Z,1512.00
2018-09-12T11:00:34.260Z,1504.00
2018-09-12T11:01:34.247Z,1504.00
2018-09-12T11:02:34.239Z,1488.00
2018-09-12T11:03:34.240Z,1500.00
2018-09-12T11:04:34.213Z,1500.00
2018-09-12T11:05:34.198Z,1496.00
2018-09-12T11:06:34.193Z,1496.00
2018-09-12T11:07:34.178Z,1540.00
2018-09-12T11:08:34.183Z,1528.00
2018-09-12T11:09:34.157Z,1480.00
2018-09-12T11:10:34.152Z,1476.00
2018-09-12T11:11:34.137Z,1480.00
2018-09-12T11:12:34.125Z,1476.00
2018-09-12T11:13:34.138Z,1472.00
2018-09-12T11:14:34.102Z,1480.00
2018-09-12T11:15:34.092Z,1476.00
2018-09-12T11:16:34.082Z,1472.00
2018-09-12T11:17:34.064Z,1460.00
2018-09-12T11:18:34.070Z,1456.00
2018-09-12T11:19:34.042Z,1452.00
2018-09-12T11:20:34.037Z,1444.00
2018-09-12T11:21:34.023Z,1448.00
2018-09-12T11:22:34.013Z,1436.00
2018-09-12T11:23:34.012Z,1424.00
2018-09-12T11:24:33.988Z,1428.00
2018-09-12T11:25:33.981Z,1420.00
2018-09-12T11:26:33.962Z,1420.00
2018-09-12T11:27:33.962Z,1424.00
2018-09-12T11:28:33.971Z,1440.00
2018-09-12T11:29:33.934Z,1444.00
2018-09-12T11:30:33.921Z,1412.00
2018-09-12T11:31:33.911Z,1400.00
2018-09-12T11:32:33.896Z,1412.00
2018-09-12T11:33:33.905Z,1404.00
2018-09-12T11:34:33.883Z,1396.00
2018-09-12T11:35:33.868Z,1404.00
2018-09-12T11:36:33.853Z,1380.00
2018-09-12T11:37:33.842Z,1404.00
2018-09-12T11:38:33.854Z,1392.00
2018-09-12T11:39:33.827Z,1380.00
2018-09-12T11:40:33.807Z,1380.00
2018-09-12T11:41:33.810Z,1368.00
2018-09-12T11:42:33.785Z,1352.00
2018-09-12T11:43:33.799Z,1348.00
2018-09-12T11:44:33.766Z,1352.00
2018-09-12T11:45:33.767Z,1336.00
2018-09-12T11:46:33.741Z,1324.00
2018-09-12T11:47:33.731Z,1332.00
2018-09-12T11:48:33.737Z,1328.00
2018-09-12T11:49:33.719Z,1328.00
2018-09-12T11:50:33.700Z,1316.00
2018-09-12T11:51:33.696Z,1308.00
2018-09-12T11:52:33.694Z,1304.00
2018-09-12T11:53:33.679Z,1300.00
2018-09-12T11:54:33.650Z,1320.00
2018-09-12T11:55:33.719Z,1308.00
2018-09-12T11:56:33.632Z,1308.00
2018-09-12T11:57:33.631Z,1300.00
2018-09-12T11:58:33.630Z,1292.00
2018-09-12T11:59:33.604Z,1288.00
2018-09-12T12:00:33.587Z,1288.00
2018-09-12T12:01:33.588Z,1288.00
2018-09-12T12:02:33.566Z,1284.00
2018-09-12T12:03:33.573Z,1280.00
2018-09-12T12:04:33.545Z,1276.00
2018-09-12T12:05:33.533Z,1308.00
2018-09-12T12:06:33.520Z,1256.00
2018-09-12T12:07:33.522Z,1260.00
2018-09-12T12:08:33.512Z,1264.00
2018-09-12T12:09:33.501Z,1296.00
2018-09-12T12:10:33.479Z,1260.00
2018-09-12T12:11:33.467Z,1256.00
2018-09-12T12:12:33.457Z,1252.00
2018-09-12T12:13:33.474Z,1264.00
2018-09-12T12:14:33.441Z,1256.00
2018-09-12T12:15:33.420Z,1240.00
2018-09-12T12:16:33.452Z,1240.00
2018-09-12T12:17:33.398Z,1236.00
2018-09-12T12:18:33.413Z,1236.00
2018-09-12T12:19:33.380Z,1228.00
2018-09-12T12:20:33.364Z,1228.00
2018-09-12T12:21:33.356Z,1216.00
2018-09-12T12:22:33.343Z,1212.00
2018-09-12T12:23:33.360Z,1208.00
2018-09-12T12:24:33.325Z,1208.00
2018-09-12T12:25:33.322Z,1204.00
2018-09-12T12:26:33.301Z,1196.00
2018-09-12T12:27:33.290Z,1184.00
2018-09-12T12:28:33.291Z,1168.00
2018-09-12T12:29:33.265Z,1172.00
2018-09-12T12:30:33.258Z,1168.00
2018-09-12T12:31:33.245Z,1148.00
2018-09-12T12:32:33.237Z,1144.00
2018-09-12T12:33:33.240Z,1132.00
2018-09-12T12:34:33.216Z,1116.00
2018-09-12T12:35:33.300Z,1112.00
2018-09-12T12:36:33.185Z,1128.00
2018-09-12T12:37:33.173Z,1128.00
2018-09-12T12:38:33.184Z,1116.00
2018-09-12T12:39:33.163Z,1108.00
2018-09-12T12:40:33.145Z,1112.00
2018-09-12T12:41:33.134Z,1096.00
2018-09-12T12:42:33.118Z,1080.00
2018-09-12T12:43:33.142Z,1072.00
2018-09-12T12:44:33.100Z,1068.00
2018-09-12T12:45:33.095Z,1068.00
2018-09-12T12:46:33.077Z,1060.00
2018-09-12T12:47:33.066Z,1048.00
2018-09-12T12:48:33.051Z,1048.00
2018-09-12T12:49:33.065Z,1012.00
2018-09-12T12:50:33.039Z,1020.00
2018-09-12T12:51:33.034Z,1044.00
2018-09-12T12:52:33.012Z,1044.00
2018-09-12T12:53:33.003Z,1024.00
2018-09-12T12:54:33.063Z,1040.00
2018-09-12T12:55:32.997Z,1040.00
2018-09-12T12:56:32.967Z,1028.00
2018-09-12T12:57:32.952Z,1024.00
2018-09-12T12:58:32.954Z,1008.00
2018-09-12T12:59:32.968Z,1024.00
2018-09-12T13:00:32.922Z,1016.00
2018-09-12T13:01:32.907Z,1008.00
2018-09-12T13:02:32.901Z,988.00
2018-09-12T13:03:32.890Z,976.00
2018-09-12T13:04:32.888Z,976.00
2018-09-12T13:05:32.923Z,960.00
2018-09-12T13:06:32.904Z,960.00
2018-09-12T13:07:32.859Z,952.00
2018-09-12T13:08:32.831Z,944.00
2018-09-12T13:09:33.433Z,952.00
2018-09-12T13:10:32.924Z,956.00
2018-09-12T13:11:33.204Z,952.00
2018-09-12T13:12:33.473Z,956.00
2018-09-12T13:13:32.770Z,956.00
2018-09-12T13:14:33.245Z,952.00
2018-09-12T13:15:32.755Z,956.00
2018-09-12T13:16:32.740Z,948.00
2018-09-12T13:17:32.729Z,924.00
2018-09-12T13:18:32.726Z,916.00
2018-09-12T13:19:32.721Z,900.00
2018-09-12T13:20:32.698Z,900.00
2018-09-12T13:21:32.818Z,896.00
2018-09-12T13:22:32.671Z,876.00
2018-09-12T13:23:32.665Z,900.00
2018-09-12T13:24:32.659Z,860.00
2018-09-12T13:25:32.640Z,872.00
2018-09-12T13:26:32.630Z,864.00
2018-09-12T13:27:32.681Z,860.00
2018-09-12T13:28:32.606Z,844.00
2018-09-12T13:29:32.614Z,852.00
2018-09-12T13:30:32.587Z,844.00
2018-09-12T13:31:32.575Z,848.00
2018-09-12T13:32:32.562Z,848.00
2018-09-12T13:33:32.552Z,852.00
2018-09-12T13:34:32.559Z,864.00
2018-09-12T13:35:32.535Z,844.00
2018-09-12T13:36:32.515Z,844.00
2018-09-12T13:37:32.509Z,844.00
2018-09-12T13:38:32.493Z,828.00
2018-09-12T13:39:32.496Z,824.00
2018-09-12T13:40:32.472Z,828.00
2018-09-12T13:41:32.462Z,824.00
2018-09-12T13:42:32.449Z,816.00
2018-09-12T13:43:32.438Z,824.00
2018-09-12T13:44:32.554Z,820.00
2018-09-12T13:45:32.416Z,800.00
2018-09-12T13:46:32.404Z,800.00
2018-09-12T13:47:32.395Z,836.00
2018-09-12T13:48:32.384Z,808.00
2018-09-12T13:49:32.398Z,816.00
2018-09-12T13:50:32.363Z,824.00
2018-09-12T13:51:32.351Z,804.00
2018-09-12T13:52:32.338Z,816.00
2018-09-12T13:53:32.334Z,812.00
2018-09-12T13:54:32.328Z,804.00
2018-09-12T13:55:32.305Z,804.00
2018-09-12T13:56:32.306Z,804.00
2018-09-12T13:57:32.283Z,788.00
2018-09-12T13:58:32.271Z,800.00
2018-09-12T13:59:32.271Z,804.00
2018-09-12T14:00:32.249Z,800.00
2018-09-12T14:01:32.243Z,840.00
2018-09-12T14:02:32.226Z,1016.00
2018-09-12T14:03:32.220Z,996.00
2018-09-12T14:04:32.218Z,868.00
2018-09-12T14:05:32.194Z,844.00
2018-09-12T14:06:32.183Z,852.00
2018-09-12T14:07:32.174Z,824.00
2018-09-12T14:08:32.162Z,804.00
2018-09-12T14:09:32.162Z,800.00
2018-09-12T14:10:32.141Z,792.00
2018-09-12T14:11:32.132Z,792.00
2018-09-12T14:12:32.115Z,788.00
2018-09-12T14:13:32.123Z,788.00
2018-09-12T14:14:32.108Z,792.00
2018-09-12T14:15:32.083Z,772.00
2018-09-12T14:16:32.071Z,784.00
2018-09-12T14:17:32.061Z,776.00
2018-09-12T14:18:32.048Z,784.00
2018-09-12T14:19:32.137Z,788.00
2018-09-12T14:20:32.033Z,764.00
2018-09-12T14:21:32.017Z,772.00
2018-09-12T14:22:32.005Z,776.00
2018-09-12T14:23:31.994Z,776.00
2018-09-12T14:24:31.995Z,764.00
2018-09-12T14:25:31.971Z,756.00
2018-09-12T14:26:31.961Z,756.00
2018-09-12T14:27:31.952Z,756.00
2018-09-12T14:28:31.938Z,756.00
2018-09-12T14:29:31.940Z,752.00
2018-09-12T14:30:31.923Z,736.00
2018-09-12T14:31:31.907Z,748.00
2018-09-12T14:32:31.894Z,748.00
2018-09-12T14:33:31.884Z,744.00
2018-09-12T14:34:31.883Z,772.00
2018-09-12T14:35:31.858Z,788.00
2018-09-12T14:36:31.850Z,780.00
2018-09-12T14:37:31.838Z,800.00
2018-09-12T14:38:31.827Z,768.00
2018-09-12T14:39:31.913Z,776.00
2018-09-12T14:40:31.805Z,744.00
2018-09-12T14:41:31.794Z,736.00
2018-09-12T14:42:31.786Z,728.00
2018-09-12T14:43:31.774Z,712.00
2018-09-12T14:44:31.774Z,700.00
2018-09-12T14:45:31.747Z,712.00
2018-09-12T14:46:31.738Z,716.00
2018-09-12T14:47:31.785Z,712.00
2018-09-12T14:48:31.717Z,712.00
2018-09-12T14:49:31.704Z,708.00
2018-09-12T14:50:31.707Z,708.00
2018-09-12T14:51:31.684Z,712.00
2018-09-12T14:52:31.671Z,708.00
2018-09-12T14:53:31.661Z,708.00
2018-09-12T14:54:31.672Z,704.00
2018-09-12T14:55:31.648Z,704.00
2018-09-12T14:56:31.629Z,700.00
2018-09-12T14:57:31.625Z,692.00
2018-09-12T14:58:31.604Z,688.00
2018-09-12T14:59:31.593Z,684.00
2018-09-12T15:00:31.595Z,688.00
2018-09-12T15:01:31.571Z,688.00
2018-09-12T15:02:31.561Z,688.00
2018-09-12T15:03:31.548Z,688.00
2018-09-12T15:04:31.538Z,684.00
2018-09-12T15:05:31.539Z,684.00
2018-09-12T15:06:31.516Z,676.00
2018-09-12T15:07:31.510Z,676.00
2018-09-12T15:08:31.493Z,672.00
2018-09-12T15:09:31.482Z,676.00
2018-09-12T15:10:31.542Z,672.00
2018-09-12T15:11:31.459Z,676.00
2018-09-12T15:12:31.451Z,680.00
2018-09-12T15:13:31.436Z,676.00
2018-09-12T15:14:31.425Z,664.00
2018-09-12T15:15:31.446Z,656.00
2018-09-12T15:16:31.416Z,668.00
2018-09-12T15:17:31.393Z,668.00
2018-09-12T15:18:31.382Z,664.00
2018-09-12T15:19:31.369Z,668.00
2018-09-12T15:20:31.370Z,668.00
2018-09-12T15:21:31.351Z,664.00
2018-09-12T15:22:31.341Z,664.00
2018-09-12T15:23:31.324Z,664.00
2018-09-12T15:24:31.315Z,660.00
2018-09-12T15:25:31.319Z,664.00
2018-09-12T15:26:31.300Z,664.00
2018-09-12T15:27:31.281Z,660.00
2018-09-12T15:28:31.284Z,648.00
2018-09-12T15:29:31.261Z,656.00
2018-09-12T15:30:31.259Z,656.00
2018-09-12T15:31:31.236Z,656.00
2018-09-12T15:32:31.260Z,652.00
2018-09-12T15:33:31.214Z,652.00
2018-09-12T15:34:31.204Z,648.00
2018-09-12T15:35:31.204Z,644.00
2018-09-12T15:36:31.185Z,644.00
2018-09-12T15:37:31.177Z,644.00
2018-09-12T15:38:31.162Z,644.00
2018-09-12T15:39:31.149Z,640.00
2018-09-12T15:40:31.159Z,640.00
2018-09-12T15:41:31.153Z,640.00
2018-09-12T15:42:31.117Z,640.00
2018-09-12T15:43:31.102Z,640.00
2018-09-12T15:44:31.092Z,636.00
2018-09-12T15:45:31.095Z,632.00
2018-09-12T15:46:31.069Z,632.00
2018-09-12T15:47:31.062Z,628.00
2018-09-12T15:48:31.047Z,624.00
2018-09-12T15:49:31.051Z,624.00
2018-09-12T15:50:31.040Z,624.00
2018-09-12T15:51:31.013Z,624.00
2018-09-12T15:52:31.006Z,616.00
2018-09-12T15:53:30.998Z,604.00
2018-09-12T15:54:30.984Z,612.00
2018-09-12T15:55:30.981Z,608.00
2018-09-12T15:56:30.959Z,608.00
2018-09-12T15:57:30.947Z,608.00
2018-09-12T15:58:30.939Z,604.00
2018-09-12T15:59:30.925Z,604.00
2018-09-12T16:00:30.927Z,604.00
2018-09-12T16:01:30.903Z,604.00
2018-09-12T16:02:30.931Z,600.00
2018-09-12T16:03:30.879Z,600.00
2018-09-12T16:04:30.868Z,600.00
2018-09-12T16:05:30.868Z,600.00
2018-09-12T16:06:30.850Z,600.00
2018-09-12T16:07:30.836Z,596.00
2018-09-12T16:08:30.826Z,592.00
2018-09-12T16:09:30.817Z,588.00
2018-09-12T16:10:30.827Z,588.00
2018-09-12T16:11:30.792Z,588.00
2018-09-12T16:12:30.781Z,592.00
2018-09-12T16:13:30.768Z,596.00
2018-09-12T16:14:30.759Z,584.00
2018-09-12T16:15:30.786Z,580.00
2018-09-12T16:16:30.736Z,576.00